Time;durP1;ratioP1;P1;durP2;ratioP2;P2;SDS_P1;SDS_P2;PMS_P1;PMS_P2;Temp;Humidity;BMP_temperature;BMP_pressure;BME280_temperature;BME280_humidity;BME280_pressure;Samples;Min_cycle;Max_cycle;Signal;HPM_P1;HPM_P2
2022/09/13 00:00:24;;;;;;;;;4.00;4.00;;;;;;;;5099016;27;45466;-81
2022/09/13 00:02:49;;;;;;;;;4.00;4.00;;;;;;;;5099263;27;45253;-85
2022/09/13 00:05:14;;;;;;;;;4.00;4.00;;;;;;;;5099309;27;45324;-78
2022/09/13 00:07:39;;;;;;;;;4.00;4.00;;;;;;;;5098024;27;45816;-80
2022/09/13 00:10:05;;;;;;;;;5.00;4.33;;;;;;;;5098908;27;45342;-80
2022/09/13 00:12:30;;;;;;;;;4.00;4.00;;;;;;;;5098834;27;45529;-80
2022/09/13 00:14:55;;;;;;;;;4.00;4.00;;;;;;;;5099001;27;46059;-80
2022/09/13 00:17:21;;;;;;;;;4.33;4.00;;;;;;;;5098199;27;46544;-80
2022/09/13 00:19:47;;;;;;;;;6.67;4.00;;;;;;;;5098680;27;45481;-80
2022/09/13 00:22:12;;;;;;;;;5.00;5.00;;;;;;;;5098948;27;45220;-81
2022/09/13 00:24:37;;;;;;;;;7.00;7.00;;;;;;;;5098801;27;45481;-81
2022/09/13 00:27:02;;;;;;;;;6.00;4.00;;;;;;;;5098582;27;45541;-81
2022/09/13 00:29:28;;;;;;;;;5.67;4.33;;;;;;;;5098466;27;45341;-82
2022/09/13 00:31:53;;;;;;;;;5.00;5.00;;;;;;;;5098629;27;45419;-81
2022/09/13 00:34:18;;;;;;;;;5.00;4.00;;;;;;;;5098935;27;45298;-81
2022/09/13 00:36:43;;;;;;;;;5.00;5.00;;;;;;;;5098200;27;46669;-80
2022/09/13 00:39:12;;;;;;;;;5.33;4.00;;;;;;;;5098450;27;45264;-80
2022/09/13 00:41:37;;;;;;;;;7.00;5.67;;;;;;;;5098590;27;45468;-80
2022/09/13 00:44:03;;;;;;;;;5.00;5.00;;;;;;;;5098501;27;45336;-81
2022/09/13 00:46:43;;;;;;;;;5.33;4.67;;;;;;;;5098413;27;46987;-79
2022/09/13 00:49:08;;;;;;;;;5.00;5.00;;;;;;;;5098296;27;45229;-80
2022/09/13 00:51:33;;;;;;;;;5.33;5.33;;;;;;;;5098132;27;45433;-78
2022/09/13 00:54:00;;;;;;;;;5.33;5.00;;;;;;;;5098774;27;45504;-80
2022/09/13 00:56:33;;;;;;;;;7.67;6.00;;;;;;;;5097824;27;46218;-80
2022/09/13 00:59:04;;;;;;;;;7.00;6.00;;;;;;;;5098009;27;45365;-81
2022/09/13 01:01:32;;;;;;;;;5.67;5.67;;;;;;;;5098278;27;45279;-81
2022/09/13 01:03:58;;;;;;;;;9.00;6.00;;;;;;;;5098235;27;45196;-81
2022/09/13 01:06:28;;;;;;;;;4.00;4.00;;;;;;;;5097907;27;46416;-81
2022/09/13 01:08:55;;;;;;;;;4.00;4.00;;;;;;;;5097862;27;45448;-79
2022/09/13 01:11:28;;;;;;;;;7.33;5.67;;;;;;;;5097796;27;45363;-81
2022/09/13 01:13:54;;;;;;;;;5.67;5.67;;;;;;;;5098138;27;45204;-80
2022/09/13 01:16:19;;;;;;;;;5.00;4.00;;;;;;;;5096916;27;45545;-80
2022/09/13 01:18:44;;;;;;;;;5.00;4.00;;;;;;;;5097953;27;45387;-80
2022/09/13 01:21:28;;;;;;;;;6.67;4.33;;;;;;;;5098068;27;45261;-75
2022/09/13 01:23:53;;;;;;;;;6.00;6.00;;;;;;;;5097003;27;45235;-81
2022/09/13 01:26:25;;;;;;;;;6.00;6.00;;;;;;;;5096366;27;47297;-75
2022/09/13 01:29:08;;;;;;;;;6.33;4.67;;;;;;;;5097323;27;45356;-78
2022/09/13 01:31:33;;;;;;;;;4.67;4.67;;;;;;;;5097733;27;45360;-73
2022/09/13 01:34:09;;;;;;;;;10.00;5.67;;;;;;;;5097696;27;45274;-76
2022/09/13 01:36:37;;;;;;;;;8.00;6.33;;;;;;;;5097282;27;46122;-76
2022/09/13 01:39:02;;;;;;;;;5.00;5.00;;;;;;;;5097419;27;45400;-77
2022/09/13 01:41:46;;;;;;;;;7.00;5.00;;;;;;;;5097892;27;45248;-78
2022/09/13 01:44:14;;;;;;;;;6.33;6.33;;;;;;;;5097684;27;45398;-79
2022/09/13 01:46:51;;;;;;;;;5.33;5.33;;;;;;;;5096546;27;45379;-78
2022/09/13 01:49:17;;;;;;;;;8.00;7.00;;;;;;;;5097317;27;45303;-73
2022/09/13 01:51:46;;;;;;;;;6.00;6.00;;;;;;;;5097579;27;45366;-75
2022/09/13 01:54:11;;;;;;;;;7.67;7.33;;;;;;;;5097531;27;45396;-74
2022/09/13 01:56:53;;;;;;;;;7.67;7.00;;;;;;;;5097246;27;45687;-72
2022/09/13 01:59:21;;;;;;;;;6.00;6.00;;;;;;;;5096821;27;45465;-73
2022/09/13 02:01:53;;;;;;;;;8.00;7.00;;;;;;;;5097141;27;45307;-83
2022/09/13 02:04:22;;;;;;;;;8.00;6.00;;;;;;;;5097485;27;45463;-74
2022/09/13 02:06:51;;;;;;;;;12.00;6.00;;;;;;;;5096900;27;46437;-73
2022/09/13 02:09:20;;;;;;;;;7.00;7.00;;;;;;;;5098890;27;45178;-74
2022/09/13 02:11:48;;;;;;;;;6.00;6.00;;;;;;;;5100866;27;45845;-86
2022/09/13 02:14:23;;;;;;;;;9.67;8.67;;;;;;;;5101257;27;45393;-83
2022/09/13 02:16:55;;;;;;;;;11.00;8.00;;;;;;;;5100668;27;48553;-80
2022/09/13 02:19:27;;;;;;;;;10.00;7.00;;;;;;;;5100349;27;45376;-81
2022/09/13 02:21:58;;;;;;;;;9.67;8.00;;;;;;;;5100456;27;45351;-81
2022/09/13 02:24:28;;;;;;;;;8.00;6.67;;;;;;;;5100759;27;45706;-80
2022/09/13 02:26:55;;;;;;;;;60.75;48.50;;;;;;;;5099697;27;45298;-80
2022/09/13 02:29:23;;;;;;;;;20.67;18.33;;;;;;;;5099909;27;45390;-81
2022/09/13 02:31:57;;;;;;;;;16.33;9.67;;;;;;;;5100393;27;45604;-82
2022/09/13 02:34:26;;;;;;;;;8.33;8.33;;;;;;;;5100724;27;45434;-82
2022/09/13 02:36:54;;;;;;;;;8.33;6.67;;;;;;;;5100068;27;45596;-82
2022/09/13 02:39:22;;;;;;;;;10.00;7.00;;;;;;;;5100450;27;45289;-82
2022/09/13 02:41:54;;;;;;;;;8.00;8.00;;;;;;;;5100318;27;45380;-82
2022/09/13 02:44:28;;;;;;;;;7.00;5.00;;;;;;;;5100056;27;45393;-83
2022/09/13 02:46:54;;;;;;;;;8.33;7.00;;;;;;;;5100112;27;46164;-81
2022/09/13 02:49:28;;;;;;;;;8.00;8.00;;;;;;;;5100056;27;45497;-82
2022/09/13 02:52:08;;;;;;;;;11.33;8.00;;;;;;;;5100212;27;45270;-81
2022/09/13 02:54:50;;;;;;;;;8.00;7.00;;;;;;;;5100342;27;45477;-80
2022/09/13 02:57:42;;;;;;;;;8.33;7.67;;;;;;;;5099980;27;46460;-80
2022/09/13 03:00:08;;;;;;;;;9.67;8.00;;;;;;;;5016456;28;45489;-78
2022/09/13 03:02:34;;;;;;;;;9.67;8.33;;;;;;;;5017104;28;45475;-83
2022/09/13 03:04:59;;;;;;;;;8.00;6.33;;;;;;;;5017314;28;45280;-80
2022/09/13 03:07:24;;;;;;;;;10.00;6.67;;;;;;;;5017101;28;46428;-80
2022/09/13 03:09:53;;;;;;;;;8.33;8.33;;;;;;;;5016696;28;45433;-80
2022/09/13 03:12:21;;;;;;;;;11.00;8.67;;;;;;;;5016790;28;45531;-81
2022/09/13 03:14:58;;;;;;;;;9.33;8.00;;;;;;;;5017035;28;45237;-80
2022/09/13 03:17:31;;;;;;;;;7.00;7.00;;;;;;;;5016500;28;46558;-84
2022/09/13 03:20:08;;;;;;;;;9.33;8.33;;;;;;;;5016580;28;45308;-80
2022/09/13 03:22:33;;;;;;;;;8.33;7.33;;;;;;;;5016616;28;45404;-80
2022/09/13 03:25:16;;;;;;;;;9.67;9.67;;;;;;;;5016986;28;45427;-80
2022/09/13 03:27:59;;;;;;;;;11.67;10.00;;;;;;;;5016511;28;46304;-79
2022/09/13 03:30:25;;;;;;;;;11.67;7.67;;;;;;;;5016097;28;45311;-79
2022/09/13 03:33:11;;;;;;;;;8.00;7.00;;;;;;;;5016582;28;45394;-79
2022/09/13 03:35:55;;;;;;;;;10.33;8.67;;;;;;;;5016764;28;45299;-80
2022/09/13 03:38:26;;;;;;;;;7.33;6.67;;;;;;;;5099396;27;45230;-78
2022/09/13 03:40:53;;;;;;;;;9.00;9.00;;;;;;;;5099469;27;45336;-82
2022/09/13 03:43:19;;;;;;;;;28.33;25.33;;;;;;;;5100114;27;45269;-82
2022/09/13 03:45:47;;;;;;;;;17.33;15.67;;;;;;;;5099946;27;45268;-80
2022/09/13 03:48:13;;;;;;;;;9.00;7.00;;;;;;;;5099185;27;46495;-81
2022/09/13 03:50:39;;;;;;;;;14.00;11.67;;;;;;;;5099239;27;45292;-81
2022/09/13 03:53:13;;;;;;;;;11.00;11.00;;;;;;;;5099221;27;45419;-81
2022/09/13 03:55:40;;;;;;;;;22.33;22.33;;;;;;;;5099508;27;45261;-83
2022/09/13 03:58:06;;;;;;;;;10.67;10.67;;;;;;;;5099026;27;45453;-82
2022/09/13 04:00:31;;;;;;;;;8.33;8.33;;;;;;;;5098920;27;45253;-80
2022/09/13 04:02:57;;;;;;;;;11.67;9.00;;;;;;;;5099111;27;45469;-80
2022/09/13 04:05:22;;;;;;;;;9.33;8.00;;;;;;;;5099158;27;45454;-79
2022/09/13 04:07:47;;;;;;;;;9.33;8.33;;;;;;;;5098632;27;45632;-77
2022/09/13 04:10:12;;;;;;;;;12.67;10.67;;;;;;;;5098456;27;45399;-79
2022/09/13 04:12:40;;;;;;;;;10.00;8.67;;;;;;;;5098498;27;45372;-79
2022/09/13 04:15:05;;;;;;;;;12.33;11.00;;;;;;;;5098892;27;45285;-79
2022/09/13 04:17:31;;;;;;;;;8.33;8.33;;;;;;;;5098600;27;46221;-78
2022/09/13 04:19:56;;;;;;;;;11.33;9.67;;;;;;;;5098703;27;45369;-78
2022/09/13 04:22:21;;;;;;;;;21.33;18.33;;;;;;;;5098816;27;45206;-77
2022/09/13 04:24:46;;;;;;;;;14.33;10.00;;;;;;;;5098984;27;45158;-79
2022/09/13 04:27:12;;;;;;;;;11.67;9.33;;;;;;;;5098442;27;46240;-80
2022/09/13 04:29:37;;;;;;;;;10.00;9.00;;;;;;;;5097754;27;45242;-80
2022/09/13 04:32:02;;;;;;;;;9.33;7.33;;;;;;;;5079628;27;45346;-79
2022/09/13 04:34:28;;;;;;;;;8.00;8.00;;;;;;;;5098808;27;45451;-79
2022/09/13 04:36:53;;;;;;;;;14.67;7.33;;;;;;;;5098448;27;46417;-79
2022/09/13 04:39:19;;;;;;;;;10.00;8.33;;;;;;;;5098356;27;45359;-80
2022/09/13 04:41:47;;;;;;;;;12.33;9.00;;;;;;;;5098486;27;45414;-80
2022/09/13 04:44:13;;;;;;;;;11.00;10.33;;;;;;;;5098505;27;45324;-80
2022/09/13 04:46:38;;;;;;;;;12.00;8.33;;;;;;;;5098082;27;45506;-80
2022/09/13 04:49:03;;;;;;;;;9.00;9.00;;;;;;;;5098280;27;45325;-80
2022/09/13 04:51:29;;;;;;;;;11.00;10.33;;;;;;;;5098492;27;45399;-80
2022/09/13 04:53:55;;;;;;;;;9.67;8.33;;;;;;;;5098685;27;45254;-80
2022/09/13 04:56:22;;;;;;;;;8.00;8.00;;;;;;;;5098005;27;45536;-80
2022/09/13 04:58:47;;;;;;;;;12.67;10.67;;;;;;;;5098125;27;45285;-82
2022/09/13 05:01:13;;;;;;;;;8.00;8.00;;;;;;;;5098088;27;45368;-82
2022/09/13 05:03:38;;;;;;;;;12.67;9.00;;;;;;;;5098359;27;45488;-83
2022/09/13 05:06:04;;;;;;;;;8.33;7.00;;;;;;;;5098057;27;47002;-82
2022/09/13 05:08:30;;;;;;;;;12.33;10.00;;;;;;;;5098040;27;45491;-82
2022/09/13 05:10:55;;;;;;;;;11.00;10.00;;;;;;;;5097738;27;45415;-81
2022/09/13 05:13:20;;;;;;;;;12.00;9.00;;;;;;;;5098253;27;45360;-82
2022/09/13 05:15:46;;;;;;;;;9.00;8.00;;;;;;;;5097563;27;46337;-83
2022/09/13 05:18:11;;;;;;;;;10.00;10.00;;;;;;;;5098049;27;45278;-83
2022/09/13 05:20:36;;;;;;;;;13.00;13.00;;;;;;;;5097917;27;45340;-77
2022/09/13 05:23:01;;;;;;;;;14.00;14.00;;;;;;;;5098070;27;45340;-77
2022/09/13 05:25:26;;;;;;;;;10.33;10.00;;;;;;;;5097850;27;45587;-77
2022/09/13 05:27:52;;;;;;;;;11.33;9.33;;;;;;;;5097673;27;45795;-76
2022/09/13 05:30:17;;;;;;;;;11.33;9.00;;;;;;;;5097743;27;45307;-78
2022/09/13 05:32:42;;;;;;;;;17.33;14.67;;;;;;;;5097759;27;45473;-74
2022/09/13 05:35:08;;;;;;;;;12.00;10.67;;;;;;;;5097502;27;46631;-84
2022/09/13 05:37:33;;;;;;;;;10.33;8.00;;;;;;;;5097355;27;45352;-84
2022/09/13 05:39:58;;;;;;;;;17.33;13.33;;;;;;;;5097666;27;45249;-83
2022/09/13 05:42:24;;;;;;;;;13.00;11.33;;;;;;;;5098034;27;45344;-83
2022/09/13 05:44:49;;;;;;;;;12.33;11.67;;;;;;;;5099932;27;46280;-82
2022/09/13 05:47:14;;;;;;;;;13.33;11.67;;;;;;;;5100923;27;45418;-83
2022/09/13 05:49:39;;;;;;;;;14.33;14.33;;;;;;;;5101327;27;45307;-84
2022/09/13 05:52:05;;;;;;;;;13.00;10.00;;;;;;;;5101398;27;45450;-83
2022/09/13 05:54:30;;;;;;;;;14.33;13.00;;;;;;;;5101192;27;46302;-81
2022/09/13 05:56:56;;;;;;;;;9.67;8.67;;;;;;;;5100939;27;45391;-83
2022/09/13 05:59:21;;;;;;;;;10.33;9.00;;;;;;;;5101095;27;45434;-84
2022/09/13 06:01:47;;;;;;;;;11.67;8.00;;;;;;;;5100966;27;45542;-85
2022/09/13 06:04:13;;;;;;;;;12.33;8.67;;;;;;;;5100813;27;46970;-86
2022/09/13 06:06:38;;;;;;;;;14.67;14.33;;;;;;;;5101073;27;45341;-85
2022/09/13 06:09:05;;;;;;;;;11.67;11.67;;;;;;;;5100770;27;45387;-85
2022/09/13 06:11:31;;;;;;;;;13.00;12.67;;;;;;;;5100964;27;45526;-85
2022/09/13 06:13:56;;;;;;;;;9.33;9.33;;;;;;;;5100775;27;47044;-85
2022/09/13 06:16:21;;;;;;;;;8.33;8.33;;;;;;;;5100549;27;45835;-85
2022/09/13 06:18:47;;;;;;;;;14.33;13.33;;;;;;;;5100617;27;45313;-85
2022/09/13 06:21:16;;;;;;;;;19.67;13.33;;;;;;;;5100843;27;45517;-78
2022/09/13 06:23:42;;;;;;;;;15.33;11.67;;;;;;;;5100444;27;46550;-77
2022/09/13 06:26:09;;;;;;;;;15.33;11.33;;;;;;;;5100367;27;45515;-77
2022/09/13 06:28:35;;;;;;;;;16.67;16.67;;;;;;;;5100405;27;45221;-77
2022/09/13 06:31:05;;;;;;;;;12.00;9.67;;;;;;;;5100599;27;45418;-77
2022/09/13 06:33:31;;;;;;;;;12.33;12.33;;;;;;;;5100272;27;45568;-76
2022/09/13 06:35:58;;;;;;;;;14.67;12.33;;;;;;;;5100341;27;45332;-78
2022/09/13 06:38:24;;;;;;;;;9.67;9.67;;;;;;;;5100499;27;45442;-78
2022/09/13 06:40:58;;;;;;;;;11.33;9.00;;;;;;;;5100498;27;45384;-77
2022/09/13 06:43:23;;;;;;;;;10.33;9.33;;;;;;;;5100076;27;46722;-77
2022/09/13 06:45:48;;;;;;;;;11.33;11.33;;;;;;;;5100250;27;45479;-77
2022/09/13 06:48:13;;;;;;;;;12.33;9.33;;;;;;;;5100282;27;45556;-78
2022/09/13 06:50:38;;;;;;;;;13.00;9.33;;;;;;;;5100531;27;45207;-78
2022/09/13 06:53:04;;;;;;;;;13.33;11.33;;;;;;;;5099947;27;46164;-78
2022/09/13 06:55:29;;;;;;;;;19.67;17.33;;;;;;;;5099624;27;45514;-77
2022/09/13 06:57:55;;;;;;;;;15.67;13.67;;;;;;;;5100344;27;45278;-78
2022/09/13 07:00:20;;;;;;;;;13.00;10.00;;;;;;;;5100266;27;45242;-77
2022/09/13 07:02:49;;;;;;;;;19.33;17.67;;;;;;;;5099854;27;46240;-77
2022/09/13 07:05:16;;;;;;;;;14.33;14.00;;;;;;;;5100008;27;45697;-77
2022/09/13 07:07:41;;;;;;;;;12.00;12.00;;;;;;;;5100047;27;45279;-78
2022/09/13 07:10:07;;;;;;;;;17.00;14.67;;;;;;;;5100084;27;45702;-77
2022/09/13 07:12:32;;;;;;;;;13.33;13.33;;;;;;;;5099627;27;45347;-78
2022/09/13 07:14:57;;;;;;;;;18.33;15.33;;;;;;;;5099920;27;45353;-77
2022/09/13 07:17:23;;;;;;;;;13.33;12.00;;;;;;;;5099703;27;45301;-77
2022/09/13 07:19:48;;;;;;;;;16.33;12.67;;;;;;;;5100050;27;45412;-78
2022/09/13 07:22:14;;;;;;;;;15.67;13.00;;;;;;;;5099777;27;45971;-78
2022/09/13 07:24:39;;;;;;;;;16.67;13.67;;;;;;;;5099568;27;45239;-78
2022/09/13 07:27:04;;;;;;;;;23.00;18.00;;;;;;;;5099884;27;45200;-78
2022/09/13 07:29:30;;;;;;;;;19.67;14.67;;;;;;;;5099878;27;45357;-78
2022/09/13 07:31:57;;;;;;;;;12.67;12.33;;;;;;;;5099160;27;46478;-78
2022/09/13 07:34:23;;;;;;;;;20.00;14.00;;;;;;;;5099435;27;45373;-77
2022/09/13 07:36:49;;;;;;;;;21.33;15.00;;;;;;;;5099271;27;45449;-77
2022/09/13 07:39:15;;;;;;;;;18.00;13.00;;;;;;;;5099683;27;45340;-77
2022/09/13 07:41:40;;;;;;;;;14.67;13.33;;;;;;;;5099227;27;46321;-78
2022/09/13 07:44:06;;;;;;;;;24.33;14.33;;;;;;;;5094634;27;45420;-78
2022/09/13 07:46:32;;;;;;;;;16.33;13.33;;;;;;;;5097418;27;45417;-77
2022/09/13 07:48:59;;;;;;;;;16.67;14.33;;;;;;;;5099373;27;45419;-78
2022/09/13 07:51:28;;;;;;;;;16.00;13.33;;;;;;;;5098886;27;47121;-77
2022/09/13 07:53:55;;;;;;;;;18.33;14.00;;;;;;;;5099165;27;45494;-77
2022/09/13 07:56:21;;;;;;;;;25.67;21.33;;;;;;;;5099021;27;45318;-77
2022/09/13 07:58:47;;;;;;;;;18.00;16.00;;;;;;;;5099361;27;45433;-77
2022/09/13 08:01:12;;;;;;;;;20.00;16.67;;;;;;;;5098681;27;46543;-78
2022/09/13 08:03:38;;;;;;;;;10.00;8.33;;;;;;;;5098716;27;45343;-78
2022/09/13 08:06:04;;;;;;;;;17.33;16.33;;;;;;;;5098211;27;45382;-78
2022/09/13 08:08:29;;;;;;;;;16.33;16.33;;;;;;;;5098997;27;45244;-78
2022/09/13 08:10:55;;;;;;;;;11.00;10.00;;;;;;;;5080493;27;45716;-77
2022/09/13 08:13:20;;;;;;;;;14.33;12.00;;;;;;;;5078052;27;45363;-77
2022/09/13 08:15:45;;;;;;;;;16.33;14.67;;;;;;;;5078489;28;45360;-77
2022/09/13 08:18:11;;;;;;;;;19.00;16.67;;;;;;;;5078575;28;45371;-77
2022/09/13 08:20:37;;;;;;;;;14.67;14.67;;;;;;;;5078212;28;46917;-77
2022/09/13 08:23:02;;;;;;;;;18.67;17.00;;;;;;;;5078241;28;45427;-77
2022/09/13 08:25:28;;;;;;;;;12.67;12.67;;;;;;;;5078066;28;45337;-76
2022/09/13 08:27:53;;;;;;;;;19.67;17.33;;;;;;;;5078482;28;45320;-76
2022/09/13 08:30:18;;;;;;;;;16.00;16.00;;;;;;;;5078101;28;46395;-76
2022/09/13 08:32:43;;;;;;;;;19.33;19.33;;;;;;;;5077784;28;45356;-77
2022/09/13 08:35:09;;;;;;;;;17.33;16.00;;;;;;;;5078222;28;45232;-77
2022/09/13 08:37:34;;;;;;;;;17.33;15.33;;;;;;;;5078080;28;45324;-77
2022/09/13 08:39:59;;;;;;;;;18.67;17.67;;;;;;;;5077715;28;45469;-77
2022/09/13 08:42:38;;;;;;;;;22.00;19.00;;;;;;;;5077845;28;45428;-77
2022/09/13 08:45:04;;;;;;;;;18.00;16.33;;;;;;;;5077982;28;45216;-77
2022/09/13 08:47:51;;;;;;;;;19.67;18.67;;;;;;;;5077885;27;45230;-77
2022/09/13 08:50:19;;;;;;;;;17.67;14.67;;;;;;;;5077402;28;45714;-77
2022/09/13 08:52:45;;;;;;;;;17.33;17.33;;;;;;;;5077682;28;45409;-80
2022/09/13 08:55:20;;;;;;;;;15.67;13.33;;;;;;;;5077670;28;45656;-77
2022/09/13 08:58:04;;;;;;;;;16.33;15.67;;;;;;;;5077977;28;45320;-77
2022/09/13 09:00:37;;;;;;;;;20.33;17.33;;;;;;;;5077521;28;45368;-76
2022/09/13 09:03:08;;;;;;;;;19.67;17.33;;;;;;;;5076764;28;45525;-77
2022/09/13 09:05:41;;;;;;;;;26.00;19.67;;;;;;;;5077354;28;45250;-69
2022/09/13 09:08:13;;;;;;;;;19.67;19.67;;;;;;;;5077785;27;45372;-76
2022/09/13 09:10:43;;;;;;;;;22.67;17.67;;;;;;;;5092557;27;46476;-78
2022/09/13 09:13:14;;;;;;;;;20.00;17.33;;;;;;;;5096475;27;45325;-77
2022/09/13 09:15:45;;;;;;;;;24.67;21.67;;;;;;;;5097861;27;45237;-77
2022/09/13 09:18:10;;;;;;;;;21.67;20.67;;;;;;;;5099548;27;45388;-78
2022/09/13 09:20:39;;;;;;;;;26.00;21.00;;;;;;;;5101372;27;45506;-78
2022/09/13 09:23:06;;;;;;;;;22.00;19.33;;;;;;;;5101483;27;45424;-79
2022/09/13 09:25:33;;;;;;;;;20.00;18.00;;;;;;;;5101510;27;45308;-78
2022/09/13 09:27:58;;;;;;;;;19.67;17.33;;;;;;;;5101484;27;45213;-78
2022/09/13 09:30:29;;;;;;;;;20.67;15.67;;;;;;;;5101374;27;46156;-78
2022/09/13 09:32:58;;;;;;;;;24.00;17.33;;;;;;;;5101149;27;45388;-77
2022/09/13 09:35:26;;;;;;;;;16.00;16.00;;;;;;;;5101208;27;45576;-78
2022/09/13 09:38:07;;;;;;;;;19.67;17.67;;;;;;;;5101362;27;45552;-78
2022/09/13 09:40:34;;;;;;;;;19.00;15.00;;;;;;;;5101022;27;47004;-78
2022/09/13 09:43:00;;;;;;;;;17.33;17.33;;;;;;;;5100920;27;45297;-78
2022/09/13 09:45:37;;;;;;;;;18.00;15.00;;;;;;;;5101334;27;45303;-78
2022/09/13 09:48:08;;;;;;;;;15.33;15.33;;;;;;;;5101286;27;45624;-79
2022/09/13 09:50:39;;;;;;;;;14.67;14.67;;;;;;;;5100938;27;47256;-77
2022/09/13 09:53:25;;;;;;;;;19.67;14.67;;;;;;;;5100636;27;45248;-77
2022/09/13 09:56:09;;;;;;;;;15.00;13.33;;;;;;;;5100972;27;45251;-78
2022/09/13 09:58:42;;;;;;;;;19.33;16.00;;;;;;;;5101038;27;45500;-77
2022/09/13 10:01:23;;;;;;;;;13.00;12.00;;;;;;;;5100895;27;45541;-79
2022/09/13 10:03:50;;;;;;;;;17.67;17.67;;;;;;;;5100912;27;45335;-78
2022/09/13 10:06:20;;;;;;;;;18.33;15.67;;;;;;;;5100950;27;45484;-78
2022/09/13 10:08:53;;;;;;;;;24.33;21.33;;;;;;;;5101037;27;45466;-78
2022/09/13 10:11:21;;;;;;;;;15.67;12.67;;;;;;;;5080053;27;46617;-78
2022/09/13 10:13:59;;;;;;;;;13.67;13.67;;;;;;;;5080256;27;45326;-78
2022/09/13 10:16:25;;;;;;;;;15.67;15.00;;;;;;;;5080299;28;45309;-79
2022/09/13 10:18:51;;;;;;;;;17.00;15.33;;;;;;;;5080343;28;45326;-77
2022/09/13 10:21:16;;;;;;;;;12.00;10.33;;;;;;;;5079825;28;45992;-79
2022/09/13 10:23:41;;;;;;;;;18.33;16.33;;;;;;;;5080111;28;45297;-78
2022/09/13 10:26:06;;;;;;;;;18.00;15.67;;;;;;;;5080300;28;45765;-78
2022/09/13 10:28:33;;;;;;;;;19.33;16.33;;;;;;;;5080281;27;45435;-78
2022/09/13 10:31:10;;;;;;;;;14.00;13.00;;;;;;;;5079294;28;46713;-78
2022/09/13 10:33:37;;;;;;;;;14.67;13.00;;;;;;;;5079995;28;45451;-76
2022/09/13 10:36:05;;;;;;;;;15.67;12.67;;;;;;;;5080003;28;45734;-76
2022/09/13 10:38:30;;;;;;;;;13.67;11.67;;;;;;;;5080069;28;45393;-76
2022/09/13 10:40:56;;;;;;;;;15.67;15.33;;;;;;;;5079607;28;47094;-76
2022/09/13 10:43:23;;;;;;;;;15.00;12.00;;;;;;;;5079709;28;45335;-76
2022/09/13 10:45:52;;;;;;;;;12.33;11.67;;;;;;;;5079933;27;45496;-78
2022/09/13 10:48:18;;;;;;;;;18.50;15.50;;;;;;;;5079813;28;45356;-77
2022/09/13 10:51:00;;;;;;;;;13.00;13.00;;;;;;;;5078706;27;45499;-78
2022/09/13 10:53:33;;;;;;;;;18.67;12.67;;;;;;;;5079541;27;45297;-76
2022/09/13 10:55:58;;;;;;;;;19.00;14.67;;;;;;;;5079813;28;45476;-75
2022/09/13 10:58:24;;;;;;;;;15.00;15.00;;;;;;;;5079906;28;45341;-73
2022/09/13 11:01:07;;;;;;;;;15.67;14.33;;;;;;;;5079781;28;46208;-76
2022/09/13 11:03:42;;;;;;;;;12.00;12.00;;;;;;;;5079310;28;45258;-76
2022/09/13 11:06:16;;;;;;;;;14.00;14.00;;;;;;;;5079564;28;45338;-77
2022/09/13 11:08:49;;;;;;;;;18.33;15.00;;;;;;;;5079619;28;45357;-75
2022/09/13 11:11:21;;;;;;;;;15.67;15.67;;;;;;;;5079425;28;45625;-76
2022/09/13 11:14:07;;;;;;;;;19.00;15.00;;;;;;;;5079359;28;45443;-75
2022/09/13 11:16:32;;;;;;;;;19.33;16.33;;;;;;;;4977114;28;45362;-77
2022/09/13 11:19:07;;;;;;;;;18.33;16.00;;;;;;;;4977424;28;45296;-75
2022/09/13 11:21:50;;;;;;;;;19.00;17.33;;;;;;;;4977126;28;45405;-77
2022/09/13 11:24:30;;;;;;;;;17.00;15.33;;;;;;;;4977400;28;45372;-77
2022/09/13 11:26:58;;;;;;;;;14.67;14.67;;;;;;;;4977264;28;45520;-74
2022/09/13 11:29:26;;;;;;;;;18.33;16.33;;;;;;;;4977246;28;45718;-77
2022/09/13 11:32:15;;;;;;;;;18.67;16.00;;;;;;;;4976910;28;46431;-79
2022/09/13 11:34:58;;;;;;;;;18.33;16.00;;;;;;;;4963442;28;45433;-79
2022/09/13 11:37:32;;;;;;;;;24.00;22.00;;;;;;;;4977192;28;45311;-77
2022/09/13 11:40:00;;;;;;;;;23.67;18.67;;;;;;;;4977019;28;45471;-78
2022/09/13 11:42:38;;;;;;;;;20.33;17.67;;;;;;;;4976630;28;45458;-76
2022/09/13 11:45:06;;;;;;;;;21.67;19.00;;;;;;;;4976749;28;45292;-76
2022/09/13 11:47:37;;;;;;;;;18.33;17.67;;;;;;;;4977123;28;45387;-76
2022/09/13 11:50:24;;;;;;;;;16.00;15.33;;;;;;;;4976839;28;46102;-75
2022/09/13 11:52:55;;;;;;;;;21.00;20.67;;;;;;;;4991676;28;45531;-74
2022/09/13 11:55:32;;;;;;;;;21.33;20.33;;;;;;;;5078552;28;45254;-76
2022/09/13 11:57:59;;;;;;;;;13.67;13.33;;;;;;;;5078897;27;45506;-75
2022/09/13 12:00:34;;;;;;;;;17.33;17.33;;;;;;;;5079017;27;45405;-75
2022/09/13 12:03:06;;;;;;;;;20.00;18.67;;;;;;;;5078189;28;45973;-75
2022/09/13 12:05:34;;;;;;;;;22.00;16.00;;;;;;;;5078394;28;45474;-75
2022/09/13 12:08:13;;;;;;;;;19.67;15.00;;;;;;;;5078619;28;45436;-75
2022/09/13 12:10:38;;;;;;;;;18.33;16.67;;;;;;;;5093921;27;45486;-76
2022/09/13 12:13:08;;;;;;;;;19.00;15.00;;;;;;;;5098567;27;46094;-75
2022/09/13 12:15:33;;;;;;;;;18.00;15.33;;;;;;;;5098785;27;45360;-75
2022/09/13 12:18:01;;;;;;;;;19.67;15.00;;;;;;;;5098692;27;45352;-76
2022/09/13 12:20:39;;;;;;;;;18.67;14.33;;;;;;;;5098956;27;45206;-76
2022/09/13 12:23:11;;;;;;;;;13.33;13.33;;;;;;;;5098727;27;45971;-75
2022/09/13 12:25:56;;;;;;;;;16.67;16.67;;;;;;;;5098567;27;45509;-75
2022/09/13 12:28:26;;;;;;;;;15.00;15.00;;;;;;;;5097509;27;45250;-75
2022/09/13 12:30:54;;;;;;;;;21.67;16.33;;;;;;;;5098671;27;45500;-75
2022/09/13 12:33:20;;;;;;;;;17.33;14.33;;;;;;;;5098121;27;47456;-75
2022/09/13 12:35:48;;;;;;;;;31.67;26.33;;;;;;;;5098413;27;45404;-75
2022/09/13 12:38:24;;;;;;;;;20.33;15.67;;;;;;;;5098497;27;45382;-76
2022/09/13 12:41:04;;;;;;;;;14.67;13.33;;;;;;;;5098966;27;45406;-76
2022/09/13 12:43:33;;;;;;;;;16.33;14.67;;;;;;;;5079894;27;47066;-75
2022/09/13 12:46:15;;;;;;;;;15.00;14.33;;;;;;;;5098208;27;45432;-75
2022/09/13 12:49:00;;;;;;;;;15.67;14.00;;;;;;;;5098288;27;45421;-75
2022/09/13 12:51:45;;;;;;;;;19.67;17.33;;;;;;;;5098572;27;45415;-75
2022/09/13 12:54:16;;;;;;;;;16.00;15.67;;;;;;;;5097510;27;46513;-77
2022/09/13 12:56:41;;;;;;;;;18.67;16.67;;;;;;;;5098036;27;45709;-76
2022/09/13 12:59:25;;;;;;;;;18.33;14.00;;;;;;;;5098244;27;45352;-75
2022/09/13 13:01:51;;;;;;;;;16.67;13.67;;;;;;;;5098380;27;45207;-75
2022/09/13 13:04:33;;;;;;;;;16.67;16.67;;;;;;;;5098100;27;45641;-76
2022/09/13 13:07:00;;;;;;;;;17.33;15.67;;;;;;;;5098208;27;45373;-76
2022/09/13 13:09:28;;;;;;;;;25.00;23.33;;;;;;;;5092517;27;45253;-74
2022/09/13 13:11:56;;;;;;;;;16.00;13.00;;;;;;;;5077690;28;45340;-76
2022/09/13 13:14:27;;;;;;;;;21.00;16.67;;;;;;;;5077408;28;47058;-77
2022/09/13 13:16:52;;;;;;;;;17.00;16.00;;;;;;;;5077394;28;45331;-76
2022/09/13 13:19:28;;;;;;;;;18.67;16.00;;;;;;;;5077377;27;45329;-76
2022/09/13 13:21:54;;;;;;;;;16.67;16.67;;;;;;;;5077801;28;45491;-75
2022/09/13 13:24:20;;;;;;;;;15.00;14.00;;;;;;;;5077111;28;46144;-75
2022/09/13 13:26:45;;;;;;;;;19.00;15.67;;;;;;;;5077223;28;45396;-76
2022/09/13 13:29:18;;;;;;;;;25.33;20.33;;;;;;;;5077532;27;45422;-76
2022/09/13 13:31:45;;;;;;;;;18.00;16.67;;;;;;;;5077461;28;45470;-75
2022/09/13 13:34:13;;;;;;;;;18.33;12.00;;;;;;;;5076497;28;46408;-76
2022/09/13 13:36:38;;;;;;;;;13.33;13.33;;;;;;;;5076161;28;45265;-75
2022/09/13 13:39:07;;;;;;;;;17.00;15.00;;;;;;;;5077229;27;45262;-75
2022/09/13 13:41:32;;;;;;;;;18.00;14.33;;;;;;;;5077520;28;45400;-76
2022/09/13 13:43:58;;;;;;;;;23.67;21.33;;;;;;;;5077102;28;45365;-75
2022/09/13 13:46:30;;;;;;;;;16.67;15.00;;;;;;;;5076999;28;45326;-77
2022/09/13 13:49:16;;;;;;;;;20.33;18.33;;;;;;;;5077308;27;45231;-78
2022/09/13 13:51:41;;;;;;;;;18.33;14.67;;;;;;;;5077156;28;45488;-76
2022/09/13 13:54:27;;;;;;;;;21.00;18.33;;;;;;;;5076912;28;46051;-75
2022/09/13 13:56:52;;;;;;;;;18.00;17.00;;;;;;;;5076830;28;45571;-75
2022/09/13 13:59:26;;;;;;;;;21.00;19.67;;;;;;;;5077179;28;45297;-75
2022/09/13 14:01:53;;;;;;;;;17.00;17.00;;;;;;;;5077194;27;45457;-75
2022/09/13 14:04:37;;;;;;;;;20.33;17.00;;;;;;;;5076703;28;45655;-76
2022/09/13 14:07:05;;;;;;;;;17.33;16.67;;;;;;;;5080245;27;45314;-77
2022/09/13 14:09:41;;;;;;;;;28.00;20.00;;;;;;;;5080565;27;45337;-77
2022/09/13 14:12:27;;;;;;;;;23.00;17.67;;;;;;;;5080522;28;45214;-75
2022/09/13 14:14:58;;;;;;;;;19.00;16.00;;;;;;;;5069007;28;45585;-75
2022/09/13 14:17:42;;;;;;;;;22.33;22.00;;;;;;;;5080272;28;45420;-74
2022/09/13 14:20:12;;;;;;;;;24.00;19.00;;;;;;;;5080133;27;45278;-75
2022/09/13 14:22:37;;;;;;;;;25.00;21.00;;;;;;;;5080424;28;45515;-75
2022/09/13 14:25:22;;;;;;;;;21.33;18.33;;;;;;;;5079797;28;45247;-75
2022/09/13 14:27:48;;;;;;;;;22.67;18.33;;;;;;;;5079344;28;45322;-75
2022/09/13 14:30:29;;;;;;;;;22.00;21.33;;;;;;;;5079950;28;45243;-75
2022/09/13 14:32:56;;;;;;;;;19.50;19.00;;;;;;;;5080348;28;45335;-74
2022/09/13 14:35:35;;;;;;;;;21.67;20.67;;;;;;;;5079657;28;46222;-75
2022/09/13 14:38:11;;;;;;;;;24.00;18.33;;;;;;;;5079770;28;45195;-75